createdAt,value
2023-06-04T00:02:14.963Z,13.50
2023-06-04T00:04:53.090Z,13.40
2023-06-04T00:07:38.932Z,13.40
2023-06-04T00:10:08.781Z,13.30
2023-06-04T00:12:38.386Z,13.30
2023-06-04T00:15:22.471Z,13.30
2023-06-04T00:17:59.327Z,13.40
2023-06-04T00:20:55.915Z,13.40
2023-06-04T00:23:40.995Z,13.40
2023-06-04T00:26:12.546Z,13.40
2023-06-04T00:28:51.962Z,13.30
2023-06-04T00:31:20.717Z,13.40
2023-06-04T00:33:51.178Z,13.30
2023-06-04T00:36:26.861Z,13.30
2023-06-04T00:39:07.423Z,13.30
2023-06-04T00:42:07.461Z,13.30
2023-06-04T00:44:37.686Z,13.20
2023-06-04T00:47:15.772Z,13.20
2023-06-04T00:49:57.961Z,13.20
2023-06-04T00:53:35.411Z,13.20
2023-06-04T00:56:09.416Z,13.10
2023-06-04T00:59:00.252Z,13.10
2023-06-04T01:01:59.217Z,13.10
2023-06-04T01:05:50.376Z,13.10
2023-06-04T01:08:35.112Z,13.00
2023-06-04T01:11:07.190Z,13.00
2023-06-04T01:13:35.961Z,12.90
2023-06-04T01:16:22.567Z,12.90
2023-06-04T01:18:57.702Z,12.90
2023-06-04T01:21:32.023Z,12.90
2023-06-04T01:24:38.142Z,12.80
2023-06-04T01:27:29.409Z,12.80
2023-06-04T01:30:02.917Z,12.70
2023-06-04T01:33:00.687Z,12.70
2023-06-04T01:40:14.221Z,12.70
2023-06-04T01:43:04.541Z,12.70
2023-06-04T01:45:53.315Z,12.60
2023-06-04T01:48:33.961Z,12.50
2023-06-04T01:51:32.248Z,12.50
2023-06-04T01:54:04.801Z,12.50
2023-06-04T01:56:33.599Z,12.50
2023-06-04T01:59:09.388Z,12.50
2023-06-04T02:02:13.815Z,12.40
2023-06-04T02:05:02.408Z,12.40
2023-06-04T02:10:39.534Z,12.30
2023-06-04T02:13:14.333Z,12.20
2023-06-04T02:15:47.345Z,12.20
2023-06-04T02:18:33.453Z,12.20
2023-06-04T02:21:03.035Z,12.10
2023-06-04T02:26:54.821Z,12.00
2023-06-04T02:29:49.515Z,12.00
2023-06-04T02:32:41.106Z,11.90
2023-06-04T02:38:31.424Z,11.90
2023-06-04T02:41:19.261Z,11.80
2023-06-04T02:43:56.826Z,11.70
2023-06-04T02:46:46.118Z,11.70
2023-06-04T02:49:35.112Z,11.60
2023-06-04T02:52:16.626Z,11.60
2023-06-04T02:54:56.067Z,11.50
2023-06-04T02:57:25.753Z,11.50
2023-06-04T02:59:57.330Z,11.50
2023-06-04T03:02:40.955Z,11.40
2023-06-04T03:05:14.238Z,11.40
2023-06-04T03:07:47.236Z,11.40
2023-06-04T03:10:25.058Z,11.40
2023-06-04T03:12:54.505Z,11.40
2023-06-04T03:15:21.610Z,11.40
2023-06-04T03:17:48.722Z,11.30
2023-06-04T03:20:15.757Z,11.30
2023-06-04T03:22:43.509Z,11.30
2023-06-04T03:25:11.116Z,11.30
2023-06-04T03:27:38.225Z,11.30
2023-06-04T03:30:07.645Z,11.30
2023-06-04T03:33:09.805Z,11.30
2023-06-04T03:35:37.061Z,11.30
2023-06-04T03:38:04.279Z,11.30
2023-06-04T03:40:37.762Z,11.30
2023-06-04T03:43:10.341Z,11.20
2023-06-04T03:45:54.147Z,11.20
2023-06-04T03:48:59.296Z,11.20
2023-06-04T03:51:36.363Z,11.20
2023-06-04T03:54:08.671Z,11.20
2023-06-04T03:57:07.356Z,11.20
2023-06-04T03:59:45.851Z,11.10
2023-06-04T04:02:25.053Z,11.20
2023-06-04T04:05:39.961Z,11.20
2023-06-04T04:16:34.767Z,11.20
2023-06-04T04:19:19.377Z,11.30
2023-06-04T04:27:28.535Z,11.40
2023-06-04T04:30:20.951Z,11.40
2023-06-04T04:33:26.932Z,11.50
2023-06-04T04:36:20.520Z,11.60
2023-06-04T04:39:24.919Z,11.70
2023-06-04T04:42:05.878Z,11.70
2023-06-04T04:44:55.692Z,11.80
2023-06-04T04:47:32.595Z,11.90
2023-06-04T04:50:26.428Z,12.00
2023-06-04T04:53:53.378Z,12.00
2023-06-04T05:09:14.039Z,12.40
2023-06-04T05:11:43.687Z,12.60
2023-06-04T05:14:11.956Z,12.60
2023-06-04T05:16:43.535Z,12.70
2023-06-04T05:19:14.672Z,12.70
2023-06-04T05:21:43.003Z,12.80
2023-06-04T05:24:11.357Z,12.90
2023-06-04T05:26:40.755Z,13.00
2023-06-04T05:29:14.807Z,13.00
2023-06-04T05:31:43.959Z,13.10
2023-06-04T05:34:17.451Z,13.20
2023-06-04T05:36:45.068Z,13.30
2023-06-04T05:39:12.174Z,13.30
2023-06-04T05:41:51.719Z,13.40
2023-06-04T05:44:19.591Z,13.50
2023-06-04T05:46:47.002Z,13.60
2023-06-04T05:49:15.011Z,13.70
2023-06-04T05:51:42.317Z,13.80
2023-06-04T05:54:09.577Z,13.90
2023-06-04T05:56:40.143Z,13.90
2023-06-04T05:59:07.464Z,14.00
2023-06-04T06:01:35.839Z,14.10
2023-06-04T06:04:03.123Z,14.20
2023-06-04T06:06:31.247Z,14.30
2023-06-04T06:08:59.185Z,14.40
2023-06-04T06:11:27.999Z,14.50
2023-06-04T06:13:56.066Z,14.70
2023-06-04T06:16:23.274Z,14.70
2023-06-04T06:18:50.549Z,14.80
2023-06-04T06:21:17.603Z,14.90
2023-06-04T06:23:46.059Z,15.00
2023-06-04T06:26:14.925Z,15.10
2023-06-04T06:28:47.837Z,15.20
2023-06-04T06:31:16.707Z,15.30
2023-06-04T06:33:43.742Z,15.40
2023-06-04T06:36:13.680Z,15.50
2023-06-04T06:38:41.775Z,15.60
2023-06-04T06:41:09.868Z,15.70
2023-06-04T06:43:37.281Z,15.80
2023-06-04T06:46:04.427Z,15.90
2023-06-04T06:48:31.468Z,16.10
2023-06-04T06:50:58.549Z,16.20
2023-06-04T06:53:25.954Z,16.30
2023-06-04T06:55:52.955Z,16.50
2023-06-04T06:58:20.051Z,16.60
2023-06-04T07:00:47.088Z,16.80
2023-06-04T07:03:14.524Z,16.90
2023-06-04T07:05:41.614Z,17.00
2023-06-04T07:08:08.745Z,17.20
2023-06-04T07:10:35.941Z,17.30
2023-06-04T07:13:03.039Z,17.50
2023-06-04T07:15:30.068Z,17.60
2023-06-04T07:17:57.399Z,17.60
2023-06-04T07:20:24.475Z,17.80
2023-06-04T07:22:51.752Z,17.90
2023-06-04T07:25:18.813Z,18.00
2023-06-04T07:27:46.156Z,18.20
2023-06-04T07:30:13.482Z,18.30
2023-06-04T07:32:40.516Z,18.50
2023-06-04T07:35:08.558Z,18.50
2023-06-04T07:37:35.904Z,18.70
2023-06-04T07:40:04.890Z,18.80
2023-06-04T07:42:31.958Z,18.90
2023-06-04T07:44:59.434Z,19.00
2023-06-04T07:47:26.893Z,19.20
2023-06-04T07:50:02.674Z,19.40
2023-06-04T07:52:30.655Z,19.50
2023-06-04T07:54:57.843Z,19.60
2023-06-04T07:57:25.938Z,19.70
2023-06-04T07:59:53.261Z,19.90
2023-06-04T08:02:20.706Z,20.00
2023-06-04T08:04:48.512Z,20.10
2023-06-04T08:07:15.644Z,20.30
2023-06-04T08:09:42.734Z,20.50
2023-06-04T08:12:11.025Z,20.70
2023-06-04T08:14:38.270Z,20.90
2023-06-04T08:17:05.970Z,21.10
2023-06-04T08:19:33.149Z,21.30
2023-06-04T08:22:01.187Z,21.40
2023-06-04T08:24:28.153Z,21.50
2023-06-04T08:26:55.148Z,21.70
2023-06-04T08:29:22.129Z,21.90
2023-06-04T08:31:49.129Z,22.20
2023-06-04T08:34:16.145Z,22.40
2023-06-04T08:36:43.154Z,22.60
2023-06-04T08:39:10.866Z,22.80
2023-06-04T08:41:43.740Z,23.00
2023-06-04T08:44:11.944Z,23.00
2023-06-04T08:46:43.359Z,23.20
2023-06-04T08:49:13.581Z,23.40
2023-06-04T08:51:41.786Z,23.50
2023-06-04T08:54:10.234Z,23.70
2023-06-04T08:56:38.749Z,23.80
2023-06-04T08:59:08.826Z,24.00
2023-06-04T09:01:40.183Z,24.10
2023-06-04T09:04:11.815Z,24.20
2023-06-04T09:06:42.542Z,24.30
2023-06-04T09:09:13.796Z,24.50
2023-06-04T09:11:51.973Z,24.80
2023-06-04T09:14:19.773Z,25.00
2023-06-04T09:16:52.884Z,25.10
2023-06-04T09:19:21.091Z,25.30
2023-06-04T09:21:56.329Z,25.30
2023-06-04T09:24:41.279Z,25.40
2023-06-04T09:27:20.070Z,25.60
2023-06-04T09:29:55.661Z,25.70
2023-06-04T09:32:32.170Z,25.70
2023-06-04T09:35:18.980Z,25.80
2023-06-04T09:37:58.071Z,25.90
2023-06-04T09:40:49.778Z,26.00
2023-06-04T09:43:42.634Z,26.10
2023-06-04T09:46:18.422Z,26.20
2023-06-04T09:48:47.896Z,26.40
2023-06-04T09:51:23.636Z,26.50
2023-06-04T09:54:00.397Z,26.50
2023-06-04T09:56:37.994Z,26.70
2023-06-04T09:59:12.516Z,26.70
2023-06-04T10:01:45.296Z,26.80
2023-06-04T10:04:14.969Z,27.10
2023-06-04T10:06:43.578Z,27.20
2023-06-04T10:09:13.630Z,27.20
2023-06-04T10:11:57.758Z,27.50
2023-06-04T10:14:33.173Z,27.60
2023-06-04T10:17:00.883Z,27.60
2023-06-04T10:19:29.344Z,27.80
2023-06-04T10:21:56.493Z,27.90
2023-06-04T10:24:25.361Z,27.80
2023-06-04T10:26:56.760Z,27.80
2023-06-04T10:29:26.574Z,28.00
2023-06-04T10:31:57.155Z,28.00
2023-06-04T10:34:24.375Z,28.00
2023-06-04T10:36:51.509Z,28.00
2023-06-04T10:39:33.346Z,27.90
2023-06-04T10:42:01.780Z,28.00
2023-06-04T10:44:29.402Z,28.10
2023-06-04T10:46:56.680Z,28.30
2023-06-04T10:49:36.082Z,28.30
2023-06-04T10:52:12.036Z,28.40
2023-06-04T10:54:39.126Z,28.40
2023-06-04T10:57:20.687Z,28.30
2023-06-04T11:00:02.395Z,28.40
2023-06-04T11:02:29.468Z,28.50
2023-06-04T11:05:06.813Z,28.60
2023-06-04T11:07:49.118Z,28.70
2023-06-04T11:10:18.668Z,28.70
2023-06-04T11:12:48.259Z,28.60
2023-06-04T11:15:16.722Z,28.60
2023-06-04T11:17:56.260Z,28.50
2023-06-04T11:20:24.442Z,28.60
2023-06-04T11:22:57.001Z,28.80
2023-06-04T11:25:28.024Z,28.80
2023-06-04T11:27:56.860Z,29.00
2023-06-04T11:30:25.031Z,29.10
2023-06-04T11:33:01.639Z,29.30
2023-06-04T11:35:28.682Z,29.50
2023-06-04T11:37:58.221Z,29.60
2023-06-04T11:40:27.801Z,29.70
2023-06-04T11:43:15.576Z,29.60
2023-06-04T11:46:07.749Z,29.70
2023-06-04T11:48:58.768Z,30.00
2023-06-04T11:51:35.102Z,30.30
2023-06-04T11:55:57.137Z,30.40
2023-06-04T11:59:20.803Z,30.30
2023-06-04T12:02:49.478Z,30.50
2023-06-04T12:14:28.533Z,31.00
2023-06-04T12:26:11.982Z,30.10
2023-06-04T12:38:22.992Z,30.30
2023-06-04T12:42:15.501Z,30.30
2023-06-04T12:44:53.776Z,30.50
2023-06-04T12:47:31.403Z,30.70
2023-06-04T12:50:49.835Z,30.90
2023-06-04T12:57:47.308Z,30.90
2023-06-04T13:00:16.270Z,30.80
2023-06-04T13:02:43.354Z,30.80
2023-06-04T13:05:10.433Z,30.90
2023-06-04T13:07:37.412Z,30.80
2023-06-04T13:10:07.182Z,30.60
2023-06-04T13:12:34.204Z,30.70
2023-06-04T13:15:09.810Z,30.90
2023-06-04T13:17:55.376Z,30.90
2023-06-04T13:20:40.931Z,30.70
2023-06-04T13:23:49.583Z,30.80
2023-06-04T13:26:19.708Z,30.90
2023-06-04T13:28:47.846Z,31.20
2023-06-04T13:31:15.195Z,31.30
2023-06-04T13:33:42.684Z,31.20
2023-06-04T13:36:09.766Z,31.20
2023-06-04T13:38:36.941Z,31.10
2023-06-04T13:41:03.872Z,31.20
2023-06-04T13:43:30.834Z,31.30
2023-06-04T13:45:57.889Z,31.50
2023-06-04T13:48:24.882Z,31.60
2023-06-04T13:50:51.903Z,31.20
2023-06-04T13:53:18.974Z,31.00
2023-06-04T13:55:46.784Z,30.80
2023-06-04T13:58:15.684Z,31.00
2023-06-04T14:00:42.676Z,31.20
2023-06-04T14:03:09.698Z,31.40
2023-06-04T14:05:36.756Z,31.50
2023-06-04T14:08:03.980Z,31.70
2023-06-04T14:10:30.971Z,31.80
2023-06-04T14:12:58.037Z,31.70
2023-06-04T14:15:25.149Z,31.60
2023-06-04T14:17:52.180Z,31.50
2023-06-04T14:20:19.197Z,31.30
2023-06-04T14:22:46.518Z,31.30
2023-06-04T14:25:13.573Z,31.30
2023-06-04T14:27:40.547Z,31.40
2023-06-04T14:30:08.725Z,31.50
2023-06-04T14:32:37.379Z,31.60
2023-06-04T14:35:05.649Z,31.60
2023-06-04T14:37:32.766Z,31.60
2023-06-04T14:39:59.831Z,31.60
2023-06-04T14:42:26.828Z,31.60
2023-06-04T14:44:53.844Z,31.50
2023-06-04T14:47:21.069Z,31.50
2023-06-04T14:49:48.015Z,31.20
2023-06-04T14:52:15.149Z,30.90
2023-06-04T14:54:42.090Z,30.70
2023-06-04T14:57:09.073Z,30.80
2023-06-04T14:59:37.997Z,30.80
2023-06-04T15:02:05.243Z,31.00
2023-06-04T15:04:32.261Z,30.90
2023-06-04T15:06:59.249Z,30.90
2023-06-04T15:09:26.351Z,30.70
2023-06-04T15:11:53.340Z,30.70
2023-06-04T15:14:20.340Z,30.70
2023-06-04T15:16:47.416Z,30.70
2023-06-04T15:19:14.396Z,30.80
2023-06-04T15:21:41.716Z,30.60
2023-06-04T15:24:10.546Z,30.40
2023-06-04T15:26:37.682Z,30.40
2023-06-04T15:29:04.721Z,30.40
2023-06-04T15:31:32.088Z,30.40
2023-06-04T15:33:59.102Z,30.50
2023-06-04T15:36:26.101Z,30.60
2023-06-04T15:38:53.166Z,30.40
2023-06-04T15:41:22.210Z,30.30
2023-06-04T15:43:52.154Z,30.10
2023-06-04T15:46:19.282Z,29.80
2023-06-04T15:48:48.242Z,29.80
2023-06-04T15:51:15.834Z,29.80
2023-06-04T15:53:52.788Z,29.90
2023-06-04T16:00:42.277Z,29.70
2023-06-04T16:03:42.574Z,29.80
2023-06-04T16:06:33.433Z,29.80
2023-06-04T16:09:00.457Z,29.70
2023-06-04T16:11:27.810Z,29.70
2023-06-04T16:13:54.892Z,29.60
2023-06-04T16:16:22.093Z,29.60
2023-06-04T16:18:50.056Z,29.50
2023-06-04T16:21:17.989Z,29.40
2023-06-04T16:23:45.256Z,29.30
2023-06-04T16:26:12.260Z,29.30
2023-06-04T16:28:39.507Z,29.00
2023-06-04T16:31:06.686Z,28.70
2023-06-04T16:33:33.887Z,28.50
2023-06-04T16:36:01.043Z,28.40
2023-06-04T16:38:28.154Z,28.40
2023-06-04T16:40:57.020Z,28.30
2023-06-04T16:43:24.052Z,28.30
2023-06-04T16:45:51.176Z,28.30
2023-06-04T16:48:18.212Z,28.20
2023-06-04T16:50:45.271Z,28.20
2023-06-04T16:53:12.320Z,28.00
2023-06-04T16:55:39.488Z,28.00
2023-06-04T16:58:12.744Z,27.80
2023-06-04T17:00:39.997Z,27.60
2023-06-04T17:03:07.159Z,27.40
2023-06-04T17:05:34.480Z,27.30
2023-06-04T17:08:01.588Z,27.20
2023-06-04T17:10:33.470Z,27.10
2023-06-04T17:13:01.612Z,27.10
2023-06-04T17:15:30.117Z,27.00
2023-06-04T17:18:01.896Z,27.00
2023-06-04T17:20:31.790Z,26.90
2023-06-04T17:23:03.119Z,26.90
2023-06-04T17:25:33.221Z,26.80
2023-06-04T17:28:00.948Z,26.70
2023-06-04T17:30:28.361Z,26.60
2023-06-04T17:32:56.215Z,26.50
2023-06-04T17:35:23.322Z,26.40
2023-06-04T17:37:51.040Z,26.30
2023-06-04T17:40:18.192Z,26.20
2023-06-04T17:42:47.631Z,26.20
2023-06-04T17:45:15.526Z,26.10
2023-06-04T17:47:42.596Z,26.10
2023-06-04T17:50:12.167Z,26.00
2023-06-04T17:52:40.055Z,25.90
2023-06-04T17:55:08.207Z,25.80
2023-06-04T17:57:36.601Z,25.70
2023-06-04T18:00:04.555Z,25.60
2023-06-04T18:02:39.048Z,25.50
2023-06-04T18:05:09.512Z,25.50
2023-06-04T18:07:36.818Z,25.40
2023-06-04T18:10:04.314Z,25.30
2023-06-04T18:12:32.763Z,25.20
2023-06-04T18:15:46.618Z,25.20
2023-06-04T18:18:41.514Z,25.10
2023-06-04T18:41:41.215Z,24.60
2023-06-04T18:44:38.854Z,24.50
2023-06-04T18:48:01.758Z,24.40
2023-06-04T18:51:15.266Z,24.30
2023-06-04T18:54:20.997Z,24.20
2023-06-04T18:57:11.839Z,24.10
2023-06-04T19:19:55.000Z,23.40
2023-06-04T19:22:27.232Z,23.40
2023-06-04T19:24:55.743Z,23.30
2023-06-04T19:27:28.810Z,23.10
2023-06-04T19:29:59.750Z,23.10
2023-06-04T19:32:33.186Z,23.00
2023-06-04T19:35:17.501Z,22.90
2023-06-04T19:41:06.347Z,22.70
2023-06-04T19:43:55.002Z,22.50
2023-06-04T19:46:26.076Z,22.40
2023-06-04T19:48:53.167Z,22.30
2023-06-04T19:51:22.059Z,22.20
2023-06-04T19:53:49.293Z,22.20
2023-06-04T19:56:16.380Z,22.00
2023-06-04T19:58:43.366Z,21.90
2023-06-04T20:01:10.414Z,21.80
2023-06-04T20:03:38.154Z,21.80
2023-06-04T20:06:09.539Z,21.60
2023-06-04T20:08:37.387Z,21.60
2023-06-04T20:11:04.456Z,21.50
2023-06-04T20:13:32.166Z,21.40
2023-06-04T20:15:59.152Z,21.30
2023-06-04T20:18:29.644Z,21.20
2023-06-04T20:20:56.710Z,21.00
2023-06-04T20:23:23.882Z,20.90
2023-06-04T20:25:51.588Z,20.70
2023-06-04T20:28:18.846Z,20.50
2023-06-04T20:30:46.124Z,20.40
2023-06-04T20:33:13.291Z,20.20
2023-06-04T20:35:40.460Z,20.10
2023-06-04T20:38:07.509Z,20.00
2023-06-04T20:40:34.520Z,20.00
2023-06-04T20:43:15.494Z,19.90
2023-06-04T20:46:06.839Z,19.70
2023-06-04T20:49:00.688Z,19.60
2023-06-04T20:51:28.083Z,19.50
2023-06-04T20:54:37.235Z,19.50
2023-06-04T20:57:12.306Z,19.30
2023-06-04T20:59:45.855Z,19.20
2023-06-04T21:02:20.846Z,19.20
2023-06-04T21:05:26.804Z,19.00
2023-06-04T21:08:20.105Z,18.90
2023-06-04T21:11:06.197Z,18.80
2023-06-04T21:13:43.023Z,18.70
2023-06-04T21:16:45.919Z,18.70
2023-06-04T21:19:15.418Z,18.70
2023-06-04T21:22:45.420Z,18.70
2023-06-04T21:25:14.041Z,18.70
2023-06-04T21:27:41.192Z,18.70
2023-06-04T21:30:08.881Z,18.70
2023-06-04T21:32:36.031Z,18.70
2023-06-04T21:35:03.273Z,18.70
2023-06-04T21:37:30.423Z,18.70
2023-06-04T21:39:57.439Z,18.60
2023-06-04T21:42:24.976Z,18.60
2023-06-04T21:44:52.423Z,18.60
2023-06-04T21:47:19.913Z,18.50
2023-06-04T21:49:47.034Z,18.50
2023-06-04T21:52:25.002Z,18.40
2023-06-04T21:54:53.302Z,18.40
2023-06-04T21:57:20.841Z,18.30
2023-06-04T21:59:48.081Z,18.30
2023-06-04T22:02:15.288Z,18.20
2023-06-04T22:04:43.442Z,18.20
2023-06-04T22:07:10.672Z,18.10
2023-06-04T22:09:37.728Z,18.10
2023-06-04T22:12:05.139Z,18.00
2023-06-04T22:14:32.238Z,18.00
2023-06-04T22:16:59.338Z,18.00
2023-06-04T22:19:26.367Z,17.90
2023-06-04T22:21:53.376Z,17.90
2023-06-04T22:24:20.970Z,17.90
2023-06-04T22:26:48.261Z,17.90
2023-06-04T22:29:15.465Z,17.80
2023-06-04T22:31:42.991Z,17.80
2023-06-04T22:34:10.062Z,17.80
2023-06-04T22:36:37.189Z,17.80
2023-06-04T22:39:04.519Z,17.70
2023-06-04T22:41:31.579Z,17.70
2023-06-04T22:43:58.665Z,17.60
2023-06-04T22:46:25.908Z,17.60
2023-06-04T22:48:53.758Z,17.50
2023-06-04T22:51:24.556Z,17.50
2023-06-04T22:53:51.927Z,17.50
2023-06-04T22:56:19.090Z,17.40
2023-06-04T22:58:46.626Z,17.40
2023-06-04T23:01:13.836Z,17.40
2023-06-04T23:03:41.089Z,17.30
2023-06-04T23:06:08.313Z,17.30
2023-06-04T23:08:35.299Z,17.30
2023-06-04T23:11:02.379Z,17.20
2023-06-04T23:13:29.402Z,17.20
2023-06-04T23:15:59.137Z,17.20
2023-06-04T23:18:26.295Z,17.10
2023-06-04T23:23:55.618Z,17.00
2023-06-04T23:26:30.316Z,16.90
2023-06-04T23:28:59.301Z,16.90
2023-06-04T23:31:30.691Z,16.80
2023-06-04T23:34:01.688Z,16.80
2023-06-04T23:36:30.579Z,16.80
2023-06-04T23:38:59.171Z,16.70
2023-06-04T23:41:30.611Z,16.70
2023-06-04T23:44:00.027Z,16.60
2023-06-04T23:46:34.498Z,16.60
2023-06-04T23:49:06.120Z,16.60
2023-06-04T23:52:26.166Z,16.50
2023-06-04T23:59:05.129Z,16.40
